createdAt,value
2018-12-29T00:00:22.173Z,6.33
2018-12-29T00:02:50.829Z,4.90
2018-12-29T00:05:19.293Z,5.60
2018-12-29T00:07:47.791Z,5.80
2018-12-29T00:10:16.276Z,6.20
2018-12-29T00:12:44.735Z,6.57
2018-12-29T00:15:13.448Z,8.53
2018-12-29T00:17:41.909Z,7.60
2018-12-29T00:20:10.385Z,10.10
2018-12-29T00:22:39.110Z,12.00
2018-12-29T00:25:07.573Z,10.33
2018-12-29T00:27:37.050Z,9.50
2018-12-29T00:30:06.103Z,9.47
2018-12-29T00:32:34.583Z,8.70
2018-12-29T00:35:03.230Z,11.40
2018-12-29T00:37:31.739Z,11.03
2018-12-29T00:40:00.276Z,9.63
2018-12-29T00:42:28.918Z,10.80
2018-12-29T00:45:02.422Z,10.33
2018-12-29T00:47:27.660Z,9.80
2018-12-29T00:49:57.083Z,13.90
2018-12-29T00:52:27.543Z,12.73
2018-12-29T00:54:56.097Z,11.00
2018-12-29T00:57:24.560Z,10.27
2018-12-29T00:59:53.946Z,8.30
2018-12-29T01:02:23.622Z,10.67
2018-12-29T01:04:52.166Z,11.93
2018-12-29T01:07:20.722Z,11.40
2018-12-29T01:09:49.455Z,12.33
2018-12-29T01:12:18.003Z,13.80
2018-12-29T01:14:46.477Z,11.00
2018-12-29T01:17:14.996Z,10.10
2018-12-29T01:19:43.460Z,10.43
2018-12-29T01:22:11.978Z,11.08
2018-12-29T01:24:41.420Z,9.80
2018-12-29T01:27:09.887Z,9.30
2018-12-29T01:29:38.570Z,14.73
2018-12-29T01:32:07.050Z,10.57
2018-12-29T01:34:36.528Z,8.47
2018-12-29T01:37:05.451Z,10.13
2018-12-29T01:39:34.982Z,11.23
2018-12-29T01:42:03.462Z,9.53
2018-12-29T01:44:32.088Z,10.40
2018-12-29T01:47:00.625Z,10.60
2018-12-29T01:49:29.136Z,9.97
2018-12-29T01:51:57.611Z,9.75
2018-12-29T01:54:26.298Z,9.53
2018-12-29T01:56:54.767Z,13.27
2018-12-29T01:59:23.284Z,9.77
2018-12-29T02:01:51.806Z,9.77
2018-12-29T02:04:22.218Z,9.67
2018-12-29T02:06:50.863Z,11.03
2018-12-29T02:09:20.242Z,11.73
2018-12-29T02:11:48.725Z,9.73
2018-12-29T02:14:17.247Z,9.70
2018-12-29T02:16:45.727Z,9.77
2018-12-29T02:19:14.412Z,10.77
2018-12-29T02:21:42.881Z,8.80
2018-12-29T02:24:11.412Z,9.07
2018-12-29T02:26:39.928Z,6.80
2018-12-29T02:29:08.406Z,11.83
2018-12-29T02:31:36.925Z,9.53
2018-12-29T02:34:05.472Z,7.17
2018-12-29T02:36:34.125Z,5.47
2018-12-29T02:39:02.608Z,7.10
2018-12-29T02:41:31.084Z,7.00
2018-12-29T02:43:59.598Z,6.73
2018-12-29T02:46:28.066Z,7.80
2018-12-29T02:48:56.863Z,7.80
2018-12-29T02:51:25.339Z,7.03
2018-12-29T02:53:54.795Z,6.10
2018-12-29T02:56:23.309Z,9.40
2018-12-29T02:58:51.782Z,7.67
2018-12-29T03:01:20.738Z,6.30
2018-12-29T03:03:49.197Z,8.80
2018-12-29T03:06:17.693Z,6.53
2018-12-29T03:08:46.198Z,5.43
2018-12-29T03:11:14.679Z,6.17
2018-12-29T03:13:43.143Z,7.30
2018-12-29T03:16:12.760Z,6.33
2018-12-29T03:18:41.265Z,8.27
2018-12-29T03:21:09.728Z,3.73
2018-12-29T03:23:38.431Z,5.53
2018-12-29T03:26:08.900Z,7.47
2018-12-29T03:28:37.415Z,6.67
2018-12-29T03:31:06.030Z,5.77
2018-12-29T03:33:35.748Z,4.30
2018-12-29T03:36:04.221Z,4.00
2018-12-29T03:38:32.739Z,4.70
2018-12-29T03:41:01.219Z,5.03
2018-12-29T03:43:29.933Z,5.03
2018-12-29T03:45:59.344Z,4.83
2018-12-29T03:48:27.826Z,6.13
2018-12-29T03:50:56.359Z,7.17
2018-12-29T03:53:24.961Z,4.77
2018-12-29T03:55:53.783Z,5.23
2018-12-29T03:58:22.279Z,4.50
2018-12-29T04:00:50.845Z,6.63
2018-12-29T04:03:19.350Z,4.93
2018-12-29T04:05:47.855Z,6.07
2018-12-29T04:08:16.505Z,6.40
2018-12-29T04:10:44.976Z,7.90
2018-12-29T04:13:13.445Z,7.47
2018-12-29T04:15:41.969Z,6.67
2018-12-29T04:18:10.445Z,8.43
2018-12-29T04:20:39.140Z,9.67
2018-12-29T04:23:07.605Z,10.87
2018-12-29T04:25:36.169Z,7.33
2018-12-29T04:28:04.699Z,11.47
2018-12-29T04:30:33.166Z,8.73
2018-12-29T04:33:01.782Z,7.70
2018-12-29T04:35:30.227Z,7.67
2018-12-29T04:37:58.715Z,7.87
2018-12-29T04:40:27.530Z,9.53
2018-12-29T04:42:56.063Z,10.17
2018-12-29T04:45:24.541Z,8.43
2018-12-29T04:47:53.092Z,7.30
2018-12-29T04:50:22.531Z,7.83
2018-12-29T04:52:51.086Z,8.77
2018-12-29T04:55:20.440Z,7.93
2018-12-29T04:57:48.983Z,8.83
2018-12-29T05:00:17.509Z,12.20
2018-12-29T05:02:46.893Z,9.20
2018-12-29T05:05:15.442Z,12.33
2018-12-29T05:07:43.927Z,12.50
2018-12-29T05:10:12.417Z,13.53
2018-12-29T05:12:40.938Z,14.27
2018-12-29T05:15:09.419Z,12.90
2018-12-29T05:17:38.113Z,13.17
2018-12-29T05:20:06.768Z,11.00
2018-12-29T05:22:35.257Z,12.90
2018-12-29T05:25:03.804Z,13.97
2018-12-29T05:27:33.190Z,13.10
2018-12-29T05:30:02.260Z,13.20
2018-12-29T05:32:30.767Z,11.13
2018-12-29T05:34:59.231Z,10.40
2018-12-29T05:37:27.827Z,10.47
2018-12-29T05:39:56.293Z,12.33
2018-12-29T05:42:24.992Z,13.57
2018-12-29T05:44:54.454Z,12.93
2018-12-29T05:47:25.518Z,10.53
2018-12-29T05:49:54.092Z,10.17
2018-12-29T05:52:22.617Z,11.03
2018-12-29T05:54:51.199Z,11.90
2018-12-29T05:57:19.672Z,12.47
2018-12-29T05:59:48.150Z,14.43
2018-12-29T06:02:16.889Z,12.90
2018-12-29T06:04:45.356Z,11.70
2018-12-29T06:07:13.888Z,12.40
2018-12-29T06:09:42.461Z,13.40
2018-12-29T06:12:11.012Z,11.87
2018-12-29T06:14:39.492Z,12.50
2018-12-29T06:17:07.989Z,12.37
2018-12-29T06:19:36.461Z,12.63
2018-12-29T06:22:06.189Z,11.30
2018-12-29T06:24:34.666Z,11.37
2018-12-29T06:27:03.148Z,13.97
2018-12-29T06:29:31.664Z,17.70
2018-12-29T06:32:02.155Z,15.70
2018-12-29T06:34:30.813Z,15.77
2018-12-29T06:36:59.301Z,16.10
2018-12-29T06:39:27.785Z,15.87
2018-12-29T06:41:56.319Z,19.17
2018-12-29T06:44:25.773Z,18.63
2018-12-29T06:46:58.116Z,20.27
2018-12-29T06:49:26.602Z,23.83
2018-12-29T06:51:55.077Z,21.50
2018-12-29T06:54:23.634Z,24.50
2018-12-29T06:56:52.108Z,17.87
2018-12-29T06:59:20.708Z,18.50
2018-12-29T07:01:49.199Z,20.20
2018-12-29T07:04:17.680Z,17.10
2018-12-29T07:06:46.240Z,13.07
2018-12-29T07:09:14.758Z,14.67
2018-12-29T07:11:43.290Z,16.67
2018-12-29T07:14:11.781Z,15.43
2018-12-29T07:16:42.328Z,16.03
2018-12-29T07:19:10.652Z,17.97
2018-12-29T07:21:39.131Z,18.60
2018-12-29T07:24:07.654Z,20.57
2018-12-29T07:26:36.131Z,22.87
2018-12-29T07:29:04.820Z,20.00
2018-12-29T07:31:33.340Z,20.47
2018-12-29T07:34:01.873Z,18.70
2018-12-29T07:36:30.393Z,16.20
2018-12-29T07:38:58.865Z,17.93
2018-12-29T07:41:27.472Z,19.07
2018-12-29T07:43:56.033Z,20.33
2018-12-29T07:46:24.579Z,21.83
2018-12-29T07:48:53.169Z,22.03
2018-12-29T07:51:21.676Z,21.48
2018-12-29T07:53:50.290Z,23.77
2018-12-29T07:56:18.861Z,21.90
2018-12-29T07:58:47.342Z,26.67
2018-12-29T08:01:16.002Z,21.00
2018-12-29T08:03:44.720Z,24.80
2018-12-29T08:06:13.224Z,26.83
2018-12-29T08:08:42.853Z,26.33
2018-12-29T08:11:11.358Z,23.27
2018-12-29T08:13:39.867Z,25.10
2018-12-29T08:16:08.399Z,22.77
2018-12-29T08:18:36.872Z,20.93
2018-12-29T08:21:05.478Z,23.73
2018-12-29T08:23:33.956Z,23.60
2018-12-29T08:26:03.698Z,21.80
2018-12-29T08:28:32.215Z,24.57
2018-12-29T08:31:00.726Z,23.53
2018-12-29T08:33:30.112Z,22.00
2018-12-29T08:35:58.615Z,19.83
2018-12-29T08:38:27.153Z,20.77
2018-12-29T08:40:55.641Z,21.40
2018-12-29T08:43:24.120Z,14.57
2018-12-29T08:45:52.630Z,21.77
2018-12-29T08:48:21.116Z,16.70
2018-12-29T08:50:49.656Z,22.27
2018-12-29T08:53:19.057Z,19.30
2018-12-29T08:55:47.626Z,22.43
2018-12-29T08:58:16.263Z,17.43
2018-12-29T09:00:44.792Z,21.27
2018-12-29T09:03:13.341Z,18.43
2018-12-29T09:05:42.896Z,12.80
2018-12-29T09:08:11.374Z,13.67
2018-12-29T09:10:39.928Z,14.50
2018-12-29T09:13:08.490Z,13.93
2018-12-29T09:15:37.182Z,14.27
2018-12-29T09:18:05.662Z,16.60
2018-12-29T09:20:34.212Z,15.10
2018-12-29T09:23:02.748Z,19.67
2018-12-29T09:25:32.200Z,14.60
2018-12-29T09:28:00.865Z,20.13
2018-12-29T09:30:29.339Z,14.10
2018-12-29T09:32:57.814Z,19.23
2018-12-29T09:35:26.393Z,14.27
2018-12-29T09:37:54.874Z,14.23
2018-12-29T09:40:23.470Z,19.60
2018-12-29T09:42:52.036Z,28.67
2018-12-29T09:45:20.587Z,59.43
2018-12-29T09:47:49.242Z,39.83
2018-12-29T09:50:17.721Z,52.77
2018-12-29T09:52:46.195Z,30.73
2018-12-29T09:55:14.801Z,30.00
2018-12-29T09:57:43.357Z,14.77
2018-12-29T10:00:12.118Z,11.83
2018-12-29T10:02:40.687Z,24.37
2018-12-29T10:05:09.485Z,20.53
2018-12-29T10:07:38.137Z,18.73
2018-12-29T10:10:06.734Z,17.80
2018-12-29T10:12:35.204Z,15.83
2018-12-29T10:15:04.222Z,18.33
2018-12-29T10:17:32.681Z,16.47
2018-12-29T10:20:01.180Z,17.33
2018-12-29T10:22:29.698Z,14.37
2018-12-29T10:24:59.118Z,18.53
2018-12-29T10:27:27.876Z,8.43
2018-12-29T10:29:56.358Z,13.00
2018-12-29T10:32:24.865Z,14.37
2018-12-29T10:34:53.405Z,10.67
2018-12-29T10:37:21.968Z,13.17
2018-12-29T10:39:50.668Z,10.73
2018-12-29T10:42:19.226Z,13.55
2018-12-29T10:44:47.701Z,15.97
2018-12-29T10:47:16.232Z,11.07
2018-12-29T10:49:44.840Z,17.43
2018-12-29T10:52:13.543Z,14.17
2018-12-29T10:54:42.015Z,14.13
2018-12-29T10:57:10.510Z,15.80
2018-12-29T10:59:39.046Z,12.37
2018-12-29T11:02:07.625Z,18.90
2018-12-29T11:04:36.470Z,11.30
2018-12-29T11:07:05.075Z,10.77
2018-12-29T11:09:33.551Z,22.53
2018-12-29T11:12:02.173Z,21.87
2018-12-29T11:14:30.694Z,10.27
2018-12-29T11:17:00.493Z,18.07
2018-12-29T11:19:29.010Z,17.97
2018-12-29T11:21:58.503Z,21.87
2018-12-29T11:24:27.042Z,18.17
2018-12-29T11:26:55.603Z,16.43
2018-12-29T11:29:24.184Z,15.87
2018-12-29T11:31:53.785Z,14.23
2018-12-29T11:34:22.269Z,16.27
2018-12-29T11:36:50.953Z,19.43
2018-12-29T11:39:19.435Z,12.73
2018-12-29T11:41:48.164Z,19.70
2018-12-29T11:44:16.661Z,13.83
2018-12-29T11:46:45.586Z,10.20
2018-12-29T11:49:17.993Z,9.40
2018-12-29T11:51:44.650Z,16.53
2018-12-29T11:54:13.166Z,12.47
2018-12-29T11:56:41.707Z,11.17
2018-12-29T11:59:10.515Z,17.90
2018-12-29T12:01:39.038Z,10.67
2018-12-29T12:04:07.525Z,19.40
2018-12-29T12:06:36.042Z,16.53
2018-12-29T12:09:05.962Z,11.90
2018-12-29T12:11:35.688Z,21.93
2018-12-29T12:14:06.366Z,12.80
2018-12-29T12:16:35.313Z,17.70
2018-12-29T12:19:03.843Z,12.27
2018-12-29T12:21:32.411Z,16.60
2018-12-29T12:24:00.893Z,13.03
2018-12-29T12:26:29.750Z,9.53
2018-12-29T12:28:58.288Z,13.17
2018-12-29T12:31:27.552Z,20.00
2018-12-29T12:33:56.193Z,16.40
2018-12-29T12:36:25.132Z,21.60
2018-12-29T12:38:54.020Z,21.77
2018-12-29T12:41:22.981Z,22.93
2018-12-29T12:43:51.833Z,22.73
2018-12-29T12:46:21.432Z,24.87
2018-12-29T12:48:50.395Z,17.80
2018-12-29T12:51:20.061Z,16.13
2018-12-29T12:53:48.850Z,24.53
2018-12-29T12:56:17.457Z,19.33
2018-12-29T12:58:48.158Z,24.73
2018-12-29T13:01:17.034Z,25.60
2018-12-29T13:03:45.508Z,26.20
2018-12-29T13:06:14.033Z,25.03
2018-12-29T13:08:42.569Z,21.40
2018-12-29T13:11:11.645Z,20.30
2018-12-29T13:13:40.471Z,25.40
2018-12-29T13:16:09.076Z,28.50
2018-12-29T13:18:37.741Z,23.13
2018-12-29T13:21:06.224Z,22.03
2018-12-29T13:23:36.798Z,22.20
2018-12-29T13:26:05.602Z,21.57
2018-12-29T13:28:34.116Z,21.80
2018-12-29T13:31:02.603Z,25.43
2018-12-29T13:33:31.133Z,19.10
2018-12-29T13:35:59.609Z,27.33
2018-12-29T13:38:28.643Z,18.67
2018-12-29T13:40:57.109Z,23.27
2018-12-29T13:43:25.603Z,30.13
2018-12-29T13:45:57.117Z,21.67
2018-12-29T13:48:27.506Z,12.13
2018-12-29T13:50:56.251Z,11.90
2018-12-29T13:53:24.901Z,21.43
2018-12-29T13:55:53.375Z,21.47
2018-12-29T13:58:21.933Z,17.03
2018-12-29T14:00:50.493Z,15.80
2018-12-29T14:03:19.203Z,24.17
2018-12-29T14:05:47.671Z,28.30
2018-12-29T14:08:16.151Z,26.53
2018-12-29T14:10:44.747Z,31.50
2018-12-29T14:13:13.387Z,28.30
2018-12-29T14:15:41.922Z,18.77
2018-12-29T14:18:10.447Z,19.90
2018-12-29T14:20:38.974Z,19.83
2018-12-29T14:23:07.905Z,27.23
2018-12-29T14:25:36.375Z,11.47
2018-12-29T14:28:04.915Z,24.37
2018-12-29T14:30:33.444Z,22.40
2018-12-29T14:33:02.007Z,12.70
2018-12-29T14:35:30.956Z,27.40
2018-12-29T14:37:59.801Z,26.93
2018-12-29T14:40:28.276Z,24.97
2018-12-29T14:42:56.801Z,22.23
2018-12-29T14:45:25.284Z,26.97
2018-12-29T14:47:53.944Z,16.87
2018-12-29T14:50:22.858Z,17.07
2018-12-29T14:52:51.336Z,20.67
2018-12-29T14:55:19.953Z,20.40
2018-12-29T14:57:48.550Z,19.03
2018-12-29T15:00:18.378Z,19.93
2018-12-29T15:02:47.141Z,26.30
2018-12-29T15:05:15.616Z,25.03
2018-12-29T15:07:44.559Z,25.73
2018-12-29T15:10:13.052Z,17.67
2018-12-29T15:12:41.692Z,24.27
2018-12-29T15:15:10.806Z,24.37
2018-12-29T15:17:39.281Z,23.67
2018-12-29T15:20:09.284Z,19.93
2018-12-29T15:22:37.763Z,18.10
2018-12-29T15:25:06.695Z,16.40
2018-12-29T15:27:35.673Z,20.70
2018-12-29T15:30:05.905Z,20.72
2018-12-29T15:32:34.439Z,18.60
2018-12-29T15:35:03.299Z,11.57
2018-12-29T15:37:31.877Z,14.10
2018-12-29T15:40:00.363Z,19.57
2018-12-29T15:42:29.207Z,28.17
2018-12-29T15:44:57.739Z,16.70
2018-12-29T15:47:26.285Z,20.20
2018-12-29T15:49:55.264Z,20.63
2018-12-29T15:52:23.792Z,24.77
2018-12-29T15:54:52.762Z,18.23
2018-12-29T15:57:21.306Z,16.47
2018-12-29T15:59:50.161Z,21.20
2018-12-29T16:02:18.841Z,24.07
2018-12-29T16:04:47.897Z,26.97
2018-12-29T16:07:16.371Z,29.17
2018-12-29T16:09:44.877Z,21.07
2018-12-29T16:12:13.732Z,15.93
2018-12-29T16:14:42.550Z,20.50
2018-12-29T16:17:11.026Z,24.73
2018-12-29T16:19:39.569Z,14.20
2018-12-29T16:22:08.433Z,11.50
2018-12-29T16:24:38.673Z,23.67
2018-12-29T16:27:08.341Z,25.50
2018-12-29T16:29:37.860Z,30.03
2018-12-29T16:32:06.420Z,27.73
2018-12-29T16:34:34.899Z,29.27
2018-12-29T16:37:03.652Z,27.93
2018-12-29T16:39:32.517Z,21.20
2018-12-29T16:42:01.004Z,14.90
2018-12-29T16:44:29.716Z,15.13
2018-12-29T16:46:58.254Z,17.73
2018-12-29T16:49:26.735Z,28.60
2018-12-29T16:51:55.282Z,17.20
2018-12-29T16:54:24.731Z,24.47
2018-12-29T16:56:54.551Z,26.30
2018-12-29T16:59:23.411Z,19.73
2018-12-29T17:01:51.919Z,25.13
2018-12-29T17:04:20.428Z,12.20
2018-12-29T17:06:48.927Z,17.80
2018-12-29T17:09:17.840Z,22.97
2018-12-29T17:11:52.317Z,12.77
2018-12-29T17:14:16.675Z,24.97
2018-12-29T17:16:45.469Z,26.40
2018-12-29T17:19:15.096Z,24.23
2018-12-29T17:21:43.741Z,20.43
2018-12-29T17:24:12.613Z,23.53
2018-12-29T17:26:41.194Z,29.07
2018-12-29T17:29:09.822Z,25.17
2018-12-29T17:31:38.306Z,25.67
2018-12-29T17:34:07.503Z,28.77
2018-12-29T17:36:41.852Z,26.20
2018-12-29T17:39:07.310Z,25.13
2018-12-29T17:41:36.013Z,22.30
2018-12-29T17:44:04.559Z,23.03
2018-12-29T17:46:34.740Z,21.73
2018-12-29T17:49:03.710Z,25.97
2018-12-29T17:51:32.215Z,26.40
2018-12-29T17:54:02.743Z,11.63
2018-12-29T17:56:31.605Z,27.07
2018-12-29T17:59:00.347Z,24.47
2018-12-29T18:01:28.899Z,22.57
2018-12-29T18:03:57.383Z,19.57
2018-12-29T18:06:25.900Z,19.47
2018-12-29T18:08:54.764Z,15.37
2018-12-29T18:11:24.404Z,21.30
2018-12-29T18:13:56.371Z,22.00
2018-12-29T18:16:24.888Z,21.17
2018-12-29T18:18:53.519Z,17.07
2018-12-29T18:21:22.068Z,18.93
2018-12-29T18:23:50.603Z,14.93
2018-12-29T18:26:19.502Z,15.47
2018-12-29T18:28:48.404Z,17.87
2018-12-29T18:31:17.051Z,21.20
2018-12-29T18:33:46.096Z,22.93
2018-12-29T18:36:14.724Z,22.93
2018-12-29T18:38:43.584Z,21.17
2018-12-29T18:41:12.134Z,22.02
2018-12-29T18:43:40.739Z,26.50
2018-12-29T18:46:09.337Z,23.80
2018-12-29T18:48:37.928Z,23.33
2018-12-29T18:51:06.405Z,20.33
2018-12-29T18:53:34.977Z,23.20
2018-12-29T18:56:03.614Z,17.33
2018-12-29T18:58:36.759Z,14.77
2018-12-29T19:01:06.311Z,20.57
2018-12-29T19:03:34.794Z,12.00
2018-12-29T19:06:03.807Z,18.50
2018-12-29T19:08:32.321Z,16.80
2018-12-29T19:11:00.955Z,21.07
2018-12-29T19:13:29.540Z,23.03
2018-12-29T19:15:58.284Z,16.40
2018-12-29T19:18:27.849Z,19.83
2018-12-29T19:20:56.410Z,15.53
2018-12-29T19:23:25.054Z,15.10
2018-12-29T19:25:53.948Z,23.27
2018-12-29T19:28:22.806Z,16.17
2018-12-29T19:30:51.699Z,23.27
2018-12-29T19:33:20.626Z,17.10
2018-12-29T19:35:52.836Z,22.93
2018-12-29T19:38:21.807Z,19.07
2018-12-29T19:40:51.065Z,25.33
2018-12-29T19:43:20.170Z,12.70
2018-12-29T19:45:48.652Z,20.03
2018-12-29T19:48:17.235Z,18.63
2018-12-29T19:50:45.767Z,16.17
2018-12-29T19:53:14.427Z,16.80
2018-12-29T19:55:42.954Z,11.60
2018-12-29T19:58:11.471Z,18.00
2018-12-29T20:00:40.052Z,12.88
2018-12-29T20:03:08.870Z,20.73
2018-12-29T20:05:37.655Z,19.33
2018-12-29T20:08:06.347Z,20.23
2018-12-29T20:10:34.906Z,18.53
2018-12-29T20:13:03.747Z,18.03
2018-12-29T20:15:32.347Z,15.57
2018-12-29T20:18:00.840Z,12.73
2018-12-29T20:20:29.585Z,20.47
2018-12-29T20:22:58.137Z,15.87
2018-12-29T20:25:26.649Z,18.03
2018-12-29T20:27:55.167Z,16.30
2018-12-29T20:30:23.700Z,14.97
2018-12-29T20:32:58.901Z,17.43
2018-12-29T20:35:22.587Z,12.90
2018-12-29T20:37:51.246Z,17.63
2018-12-29T20:40:19.730Z,14.57
2018-12-29T20:42:48.450Z,16.87
2018-12-29T20:45:17.058Z,20.17
2018-12-29T20:47:45.638Z,19.63
2018-12-29T20:50:14.468Z,18.83
2018-12-29T20:52:44.172Z,21.80
2018-12-29T20:55:12.667Z,20.90
2018-12-29T20:57:41.292Z,20.23
2018-12-29T21:00:10.513Z,22.03
2018-12-29T21:02:39.522Z,19.40
2018-12-29T21:05:08.551Z,19.20
2018-12-29T21:07:37.219Z,17.50
2018-12-29T21:10:07.098Z,17.00
2018-12-29T21:12:35.779Z,16.67
2018-12-29T21:15:05.055Z,18.17
2018-12-29T21:17:33.575Z,16.73
2018-12-29T21:20:02.058Z,17.40
2018-12-29T21:22:30.593Z,18.27
2018-12-29T21:24:59.236Z,18.43
2018-12-29T21:27:27.837Z,17.10
2018-12-29T21:29:56.340Z,24.80
2018-12-29T21:32:25.224Z,23.03
2018-12-29T21:34:53.768Z,22.10
2018-12-29T21:37:22.384Z,24.70
2018-12-29T21:39:51.279Z,25.17
2018-12-29T21:42:20.789Z,23.40
2018-12-29T21:44:49.436Z,24.30
2018-12-29T21:47:18.028Z,25.83
2018-12-29T21:49:46.515Z,24.37
2018-12-29T21:52:15.251Z,23.43
2018-12-29T21:54:43.791Z,20.80
2018-12-29T21:57:12.391Z,21.47
2018-12-29T21:59:43.868Z,23.13
2018-12-29T22:02:12.343Z,25.27
2018-12-29T22:04:40.890Z,27.83
2018-12-29T22:07:09.682Z,28.00
2018-12-29T22:09:38.169Z,38.10
2018-12-29T22:12:06.691Z,43.27
2018-12-29T22:14:35.236Z,55.43
2018-12-29T22:17:03.861Z,52.03
2018-12-29T22:19:33.484Z,47.10
2018-12-29T22:22:01.969Z,47.27
2018-12-29T22:24:30.534Z,57.90
2018-12-29T22:26:59.405Z,70.73
2018-12-29T22:29:28.055Z,77.33
2018-12-29T22:31:56.539Z,78.17
2018-12-29T22:34:25.109Z,78.13
2018-12-29T22:36:53.662Z,60.33
2018-12-29T22:39:22.172Z,51.17
2018-12-29T22:41:50.807Z,41.40
2018-12-29T22:44:20.261Z,86.33
2018-12-29T22:46:48.757Z,87.07
2018-12-29T22:49:17.311Z,60.40
2018-12-29T22:51:45.805Z,65.53
2018-12-29T22:54:14.662Z,61.60
2018-12-29T22:56:43.176Z,70.77
2018-12-29T22:59:11.785Z,63.90
2018-12-29T23:01:41.229Z,66.70
2018-12-29T23:04:09.814Z,63.73
2018-12-29T23:06:38.521Z,70.43
2018-12-29T23:09:07.477Z,69.67
2018-12-29T23:11:36.033Z,68.93
2018-12-29T23:14:04.668Z,58.60
2018-12-29T23:16:33.196Z,56.40
2018-12-29T23:19:03.038Z,61.20
2018-12-29T23:21:31.519Z,59.13
2018-12-29T23:24:00.168Z,59.97
2018-12-29T23:26:28.698Z,52.60
2018-12-29T23:28:57.180Z,42.03
2018-12-29T23:31:25.946Z,38.03
2018-12-29T23:33:54.426Z,37.87
2018-12-29T23:36:23.183Z,37.90
2018-12-29T23:38:51.781Z,36.20
2018-12-29T23:41:20.379Z,39.73
2018-12-29T23:43:49.213Z,35.37
2018-12-29T23:46:17.713Z,36.30
2018-12-29T23:48:47.128Z,33.70
2018-12-29T23:51:15.657Z,30.17
2018-12-29T23:53:44.135Z,27.50
2018-12-29T23:56:13.064Z,27.57
2018-12-29T23:58:41.550Z,28.17
